Time;durP1;ratioP1;P1;durP2;ratioP2;P2;SDS_P1;SDS_P2;PMS_P1;PMS_P2;Temp;Humidity;BMP_temperature;BMP_pressure;BME280_temperature;BME280_humidity;BME280_pressure;Samples;Min_cycle;Max_cycle;Signal;HPM_P1;HPM_P2
2023/01/27 00:00:15;;;;;;;5.40;5.00;;;;;;;0.53;79.38;94088.44;5139622;27;20179;-73
2023/01/27 00:02:43;;;;;;;5.20;4.80;;;;;;;0.51;79.64;94087.13;5140075;27;20195;-73
2023/01/27 00:05:11;;;;;;;5.40;5.00;;;;;;;0.54;79.39;94087.31;5139536;27;20201;-73
2023/01/27 00:07:38;;;;;;;5.15;4.75;;;;;;;0.57;79.44;94094.03;5122201;27;20237;-73
2023/01/27 00:10:06;;;;;;;5.30;4.90;;;;;;;0.57;79.31;94094.81;5121878;27;20202;-72
2023/01/27 00:15:18;;;;;;;5.20;4.80;;;;;;;0.47;78.90;94081.53;5121083;27;20217;-72
2023/01/27 00:17:45;;;;;;;5.05;4.65;;;;;;;0.48;79.01;94085.88;5139614;27;20194;-72
2023/01/27 00:20:12;;;;;;;4.72;4.40;;;;;;;0.47;79.42;94079.66;5139625;27;20243;-72
2023/01/27 00:25:23;;;;;;;5.18;4.78;;;;;;;0.55;79.26;94064.50;5120474;27;20187;-72
2023/01/27 00:27:50;;;;;;;4.97;4.57;;;;;;;0.60;79.08;94061.63;5138944;27;20187;-72
2023/01/27 00:35:46;;;;;;;5.00;4.60;;;;;;;0.61;78.65;94051.59;5120101;27;20218;-72
2023/01/27 00:38:12;;;;;;;6.60;6.10;;;;;;;0.59;79.12;94070.09;5138732;27;20209;-72
2023/01/27 00:41:13;;;;;;;5.30;4.90;;;;;;;0.54;78.73;94054.75;5120327;27;20195;-72
2023/01/27 00:43:26;;;;;;;5.25;4.85;;;;;;;0.53;79.07;94052.38;5138186;27;20277;-73
2023/01/27 00:45:55;;;;;;;5.15;4.75;;;;;;;0.59;79.25;94053.81;5138563;27;20187;-72
2023/01/27 00:48:22;;;;;;;4.70;4.40;;;;;;;0.62;78.67;94056.72;5138626;27;20255;-72
2023/01/27 00:50:48;;;;;;;5.15;4.75;;;;;;;0.61;78.90;94073.28;5138601;27;20240;-73
2023/01/27 00:53:15;;;;;;;5.15;4.75;;;;;;;0.60;78.50;94071.69;5138377;27;20184;-73
2023/01/27 00:55:42;;;;;;;5.72;5.32;;;;;;;0.60;78.56;94064.34;5120524;27;20211;-73
2023/01/27 00:58:09;;;;;;;6.28;5.78;;;;;;;0.61;78.71;94055.09;5120378;27;20252;-73
2023/01/27 01:00:36;;;;;;;5.70;5.30;;;;;;;0.65;78.40;94060.69;5120573;27;20203;-74
2023/01/27 01:03:05;;;;;;;6.03;5.57;;;;;;;0.68;78.34;94054.63;5120628;27;20191;-73
2023/01/27 01:05:32;;;;;;;6.32;5.82;;;;;;;0.70;77.97;94058.66;5139003;27;20622;-73
2023/01/27 01:07:59;;;;;;;6.40;5.90;;;;;;;0.72;78.12;94058.31;5120434;27;20573;-73
2023/01/27 01:10:25;;;;;;;6.03;5.63;;;;;;;0.73;78.21;94051.78;5138326;27;20183;-73
2023/01/27 01:12:52;;;;;;;6.80;6.20;;;;;;;0.74;78.15;94060.72;5138258;27;20252;-74
2023/01/27 01:15:19;;;;;;;6.05;5.60;;;;;;;0.74;78.70;94058.81;5138187;27;20195;-74
2023/01/27 01:17:46;;;;;;;5.15;4.60;;;;;;;0.73;78.44;94062.66;5138006;27;20187;-73
2023/01/27 01:20:15;;;;;;;5.10;4.70;;;;;;;0.72;78.17;94064.53;5120120;27;20202;-73
2023/01/27 01:22:42;;;;;;;4.90;4.57;;;;;;;0.76;78.58;94067.41;5120041;27;20607;-73
2023/01/27 01:25:09;;;;;;;4.93;4.57;;;;;;;0.76;78.60;94067.41;5120165;27;20191;-73
2023/01/27 01:27:36;;;;;;;4.22;3.92;;;;;;;0.76;78.68;94059.28;5138309;27;20244;-73
2023/01/27 01:30:03;;;;;;;4.10;3.80;;;;;;;0.80;78.56;94056.72;5138448;27;20183;-72
2023/01/27 01:32:30;;;;;;;4.53;4.22;;;;;;;0.71;78.05;94057.53;5138305;27;20187;-72
2023/01/27 01:34:57;;;;;;;4.78;4.38;;;;;;;0.68;78.46;94068.22;5138306;27;20187;-72
2023/01/27 01:37:25;;;;;;;5.20;4.75;;;;;;;0.71;78.34;94071.09;5137912;27;20190;-72
2023/01/27 01:39:51;;;;;;;7.25;6.55;;;;;;;0.70;78.95;94069.50;5137791;27;20190;-72
2023/01/27 01:42:18;;;;;;;6.68;6.07;;;;;;;0.70;78.62;94072.22;5119886;27;20268;-73
2023/01/27 01:44:45;;;;;;;7.13;6.43;;;;;;;0.68;78.13;94077.16;5119828;27;20278;-72
2023/01/27 01:47:15;;;;;;;5.03;4.63;;;;;;;0.66;77.96;94075.88;5137461;27;20194;-72
2023/01/27 01:49:42;;;;;;;5.38;4.90;;;;;;;0.67;77.96;94072.03;5119272;27;20656;-72
2023/01/27 01:52:11;;;;;;;4.47;4.07;;;;;;;0.67;78.98;94074.75;5119125;27;20186;-72
2023/01/27 01:54:41;;;;;;;4.68;4.28;;;;;;;0.69;78.96;94067.91;5137274;27;20183;-72
2023/01/27 01:57:11;;;;;;;4.38;4.07;;;;;;;0.65;78.60;94056.09;5119118;27;20658;-72
2023/01/27 01:59:41;;;;;;;4.38;4.07;;;;;;;0.67;79.05;94053.03;5118715;27;20230;-73
2023/01/27 02:02:10;;;;;;;4.57;4.28;;;;;;;0.69;79.08;94059.78;5118956;27;20199;-73
2023/01/27 02:04:41;;;;;;;4.72;4.43;;;;;;;0.69;78.99;94053.50;5118403;27;20203;-73
2023/01/27 02:07:11;;;;;;;5.45;5.05;;;;;;;0.68;78.70;94039.16;5119330;27;20237;-73
2023/01/27 02:09:40;;;;;;;5.40;4.90;;;;;;;0.68;79.26;94032.94;5136879;27;20241;-72
2023/01/27 02:12:07;;;;;;;5.53;5.13;;;;;;;0.71;78.73;94024.94;5118816;27;20203;-72
2023/01/27 02:14:34;;;;;;;5.95;5.53;;;;;;;0.72;78.67;94020.31;5118626;27;20199;-72
2023/01/27 02:17:00;;;;;;;6.63;6.13;;;;;;;0.71;78.67;94018.72;5118464;27;20211;-72
2023/01/27 02:19:32;;;;;;;7.32;6.72;;;;;;;0.68;78.26;94013.94;5118551;27;20195;-71
2023/01/27 02:22:00;;;;;;;7.25;6.75;;;;;;;0.68;78.85;94012.00;5118627;27;20210;-73
2023/01/27 02:24:33;;;;;;;7.20;6.60;;;;;;;0.68;78.56;94003.88;5136170;27;20191;-74
2023/01/27 02:27:01;;;;;;;7.03;6.43;;;;;;;0.65;78.57;93990.97;5118437;27;20195;-75
2023/01/27 02:29:28;;;;;;;6.80;6.20;;;;;;;0.65;78.83;93990.13;5136460;27;20183;-74
2023/01/27 02:31:55;;;;;;;6.38;5.88;;;;;;;0.60;78.58;93993.81;5136399;27;20267;-74
2023/01/27 02:34:26;;;;;;;6.00;5.60;;;;;;;0.63;79.08;94006.75;5118252;27;20206;-75
2023/01/27 02:36:55;;;;;;;5.40;5.00;;;;;;;0.64;78.84;94005.63;5136206;27;20203;-75
2023/01/27 02:39:24;;;;;;;5.72;5.32;;;;;;;0.63;78.45;94001.31;5136489;27;20187;-74
2023/01/27 02:41:53;;;;;;;5.75;5.25;;;;;;;0.60;79.08;94003.84;5118313;27;20206;-74
2023/01/27 02:44:21;;;;;;;5.70;5.20;;;;;;;0.60;79.32;93993.00;5118109;28;20206;-74
2023/01/27 02:46:48;;;;;;;6.75;6.15;;;;;;;0.64;79.24;93999.41;5117832;27;20199;-74
2023/01/27 02:49:15;;;;;;;6.30;5.80;;;;;;;0.67;79.02;94006.91;5118757;28;20207;-74
2023/01/27 02:51:42;;;;;;;6.72;6.18;;;;;;;0.68;79.37;94005.78;5117836;28;20195;-74
2023/01/27 02:54:08;;;;;;;6.47;5.97;;;;;;;0.71;79.30;94013.31;5136110;28;20642;-74
2023/01/27 02:56:35;;;;;;;6.47;5.97;;;;;;;0.71;79.42;94011.38;5117878;28;20223;-74
2023/01/27 02:59:02;;;;;;;5.65;5.25;;;;;;;0.72;79.10;94009.47;5117773;28;20666;-74
2023/01/27 03:01:31;;;;;;;6.43;5.85;;;;;;;0.68;79.15;94005.78;5136159;28;20190;-74
2023/01/27 03:03:58;;;;;;;6.32;5.82;;;;;;;0.65;79.20;94003.69;5136970;27;20240;-74
2023/01/27 03:06:25;;;;;;;5.60;5.20;;;;;;;0.67;79.05;94001.47;5140347;27;20191;-74
2023/01/27 03:08:52;;;;;;;5.60;5.20;;;;;;;0.69;78.71;93996.53;5122204;27;20198;-74
2023/01/27 03:12:18;;;;;;;5.88;5.38;;;;;;;0.70;79.01;94003.56;5122616;27;20202;-72
2023/01/27 03:14:05;;;;;;;4.93;4.63;;;;;;;0.74;79.40;93990.97;5139690;27;20279;-75
2023/01/27 03:19:18;;;;;;;5.03;4.63;;;;;;;0.74;78.81;93985.53;5121738;27;20186;-75
2023/01/27 03:21:49;;;;;;;4.97;4.68;;;;;;;0.69;79.63;93982.94;5140478;27;20188;-74
2023/01/27 03:24:16;;;;;;;5.32;4.93;;;;;;;0.70;79.52;93976.44;5140236;27;20222;-74
2023/01/27 03:26:43;;;;;;;5.47;5.07;;;;;;;0.72;79.30;93960.59;5140249;27;20190;-74
2023/01/27 03:31:55;;;;;;;7.22;6.68;;;;;;;0.75;79.15;93967.31;5121423;27;20222;-74
2023/01/27 03:34:22;;;;;;;6.60;6.03;;;;;;;0.75;78.86;93965.41;5139910;27;20195;-74
2023/01/27 03:47:46;;;;;;;4.63;4.30;;;;;;;0.80;79.87;93942.72;5121644;27;20285;-75
2023/01/27 03:50:18;;;;;;;4.50;4.20;;;;;;;0.83;79.06;93942.09;5139659;27;20228;-74
2023/01/27 03:53:01;;;;;;;4.90;4.50;;;;;;;0.80;79.61;93945.44;5139305;27;20183;-74
2023/01/27 03:55:28;;;;;;;4.70;4.30;;;;;;;0.79;79.74;93933.78;5121520;27;20183;-74
2023/01/27 03:57:56;;;;;;;3.88;3.58;;;;;;;0.79;79.85;93939.22;5139380;27;20218;-74
2023/01/27 04:00:22;;;;;;;3.95;3.72;;;;;;;0.81;79.63;93938.91;5119852;28;20248;-74
2023/01/27 04:08:19;;;;;;;4.35;4.05;;;;;;;0.80;79.27;93948.16;5137689;28;20179;-75
2023/01/27 04:11:53;;;;;;;3.88;3.58;;;;;;;0.82;79.30;93962.22;5137567;28;20183;-74
2023/01/27 04:13:31;;;;;;;4.38;3.97;;;;;;;0.80;79.13;93967.97;5137577;28;20194;-74
2023/01/27 04:15:58;;;;;;;4.20;3.72;;;;;;;0.78;79.23;93989.19;5119581;28;20503;-74
2023/01/27 04:18:26;;;;;;;3.65;3.45;;;;;;;0.77;78.90;93993.03;5137854;28;20244;-74
2023/01/27 04:20:53;;;;;;;3.90;3.60;;;;;;;0.76;79.24;94007.72;5119338;28;20202;-74
2023/01/27 04:23:19;;;;;;;4.57;4.28;;;;;;;0.74;79.59;93999.09;5120229;28;20199;-73
2023/01/27 04:25:46;;;;;;;4.57;4.18;;;;;;;0.75;79.95;94005.31;5138144;28;20193;-73
2023/01/27 04:28:13;;;;;;;5.03;4.63;;;;;;;0.75;79.59;94014.25;5120101;28;20187;-73
2023/01/27 04:30:39;;;;;;;6.45;5.95;;;;;;;0.78;79.64;94016.34;5119138;28;20438;-71
2023/01/27 04:33:09;;;;;;;7.18;6.57;;;;;;;0.84;79.49;94025.94;5137818;28;20215;-72
2023/01/27 04:35:37;;;;;;;7.50;6.90;;;;;;;0.81;79.00;94032.00;5137084;28;20221;-72
2023/01/27 04:38:04;;;;;;;7.50;6.80;;;;;;;0.78;79.28;94029.91;5137579;28;20203;-72
2023/01/27 04:40:31;;;;;;;7.15;6.65;;;;;;;0.79;79.37;94022.56;5137467;28;20194;-72
2023/01/27 04:42:58;;;;;;;7.20;6.60;;;;;;;0.79;79.57;94022.56;5119062;28;20619;-72
2023/01/27 04:45:24;;;;;;;7.30;6.60;;;;;;;0.79;80.45;94028.78;5137280;28;20179;-72
2023/01/27 04:47:51;;;;;;;7.72;7.10;;;;;;;0.82;79.96;94047.16;5119484;28;20195;-73
2023/01/27 04:50:18;;;;;;;6.82;6.22;;;;;;;0.82;80.17;94032.81;5119484;28;20281;-72
2023/01/27 04:52:46;;;;;;;6.03;5.43;;;;;;;0.78;79.75;94013.63;5137324;28;20179;-72
2023/01/27 04:55:13;;;;;;;7.03;6.30;;;;;;;0.77;80.40;94022.91;5137259;28;20199;-72
2023/01/27 04:57:40;;;;;;;9.07;8.27;;;;;;;0.78;80.50;94046.22;5137379;28;20211;-72
2023/01/27 05:00:13;;;;;;;8.60;7.88;;;;;;;0.81;80.58;94052.94;5064833;27;1537162;-73
2023/01/27 05:02:40;;;;;;;9.80;8.90;;;;;;;0.86;80.48;94044.63;5138122;27;20234;-73
2023/01/27 05:05:07;;;;;;;12.30;11.18;;;;;;;0.85;80.40;94024.03;5120056;27;20206;-73
2023/01/27 05:07:34;;;;;;;15.27;13.68;;;;;;;0.84;80.50;94036.00;5119935;27;20195;-72
2023/01/27 05:10:03;;;;;;;13.35;12.05;;;;;;;0.83;80.50;94026.25;5137768;27;20199;-73
2023/01/27 05:12:29;;;;;;;11.68;10.60;;;;;;;0.85;80.45;94027.53;5119923;27;20215;-73
2023/01/27 05:14:56;;;;;;;10.63;9.73;;;;;;;0.86;79.55;94039.97;5119494;27;20191;-73
2023/01/27 05:17:23;;;;;;;10.90;9.90;;;;;;;0.88;79.93;94037.78;5137551;27;20215;-73
2023/01/27 05:19:49;;;;;;;13.73;12.50;;;;;;;0.89;80.30;94027.69;5119933;27;20203;-73
2023/01/27 05:22:16;;;;;;;8.35;7.65;;;;;;;0.91;80.15;94023.56;5138583;27;20187;-71
2023/01/27 05:24:43;;;;;;;7.20;6.60;;;;;;;0.95;79.50;94031.88;5138199;27;20175;-71
2023/01/27 05:27:11;;;;;;;7.95;7.35;;;;;;;0.98;79.47;94023.09;5119396;27;20252;-72
2023/01/27 05:29:38;;;;;;;9.15;8.45;;;;;;;0.99;79.32;94021.19;5119314;27;20464;-66
2023/01/27 05:32:05;;;;;;;10.33;9.47;;;;;;;1.00;79.35;94020.84;5137265;27;20427;-73
2023/01/27 05:34:32;;;;;;;10.80;9.90;;;;;;;1.02;78.83;94012.38;5137260;27;20183;-69
2023/01/27 05:36:59;;;;;;;9.57;8.75;;;;;;;1.03;79.10;94005.84;5137250;27;20207;-69
2023/01/27 05:39:26;;;;;;;9.38;8.57;;;;;;;1.02;79.05;94005.06;5119502;27;20183;-69
2023/01/27 05:41:53;;;;;;;10.32;9.38;;;;;;;1.02;79.25;93998.78;5137305;27;20608;-69
2023/01/27 05:44:21;;;;;;;11.25;10.15;;;;;;;1.03;79.63;94006.63;5137063;27;20234;-70
2023/01/27 05:46:48;;;;;;;12.65;11.20;;;;;;;1.02;79.05;94010.47;5137427;27;20187;-70
2023/01/27 05:49:14;;;;;;;12.70;11.43;;;;;;;1.03;78.98;94000.41;5119028;27;20202;-70
2023/01/27 05:51:41;;;;;;;10.43;9.38;;;;;;;1.06;79.15;94000.56;5119053;27;20202;-71
2023/01/27 05:54:09;;;;;;;9.93;9.02;;;;;;;1.12;78.41;93993.84;5136951;27;20199;-70
2023/01/27 05:56:36;;;;;;;10.27;9.35;;;;;;;1.09;78.17;94008.09;5119105;27;20211;-70
2023/01/27 05:59:02;;;;;;;9.73;8.82;;;;;;;1.14;79.03;94016.06;5118916;27;20238;-70
2023/01/27 06:01:32;;;;;;;7.90;7.30;;;;;;;1.17;78.50;94017.34;5119076;27;20195;-70
2023/01/27 06:03:59;;;;;;;10.30;9.30;;;;;;;1.18;78.09;94013.50;5136641;27;20175;-70
2023/01/27 06:06:27;;;;;;;10.20;9.25;;;;;;;1.18;78.02;94019.75;5137193;27;20184;-70
2023/01/27 06:08:54;;;;;;;8.82;8.00;;;;;;;1.15;77.54;94017.66;5118603;27;20199;-69
2023/01/27 06:11:23;;;;;;;7.85;7.22;;;;;;;1.18;78.01;94008.06;5119062;27;20263;-73
2023/01/27 06:13:50;;;;;;;6.85;6.35;;;;;;;1.18;77.37;94010.78;5119290;27;20206;-71
2023/01/27 06:16:18;;;;;;;6.32;5.82;;;;;;;1.19;77.93;94012.38;5119169;27;20187;-72
2023/01/27 06:18:47;;;;;;;7.20;6.70;;;;;;;1.17;77.79;94020.06;5118857;27;20191;-72
2023/01/27 06:21:15;;;;;;;6.18;5.60;;;;;;;1.17;77.44;94014.63;5118777;27;20187;-71
2023/01/27 06:23:42;;;;;;;6.55;6.05;;;;;;;1.15;77.52;94014.94;5118936;27;20195;-72
2023/01/27 06:26:10;;;;;;;6.10;5.60;;;;;;;1.16;77.46;94018.44;5136816;27;20187;-72
2023/01/27 06:28:37;;;;;;;6.43;5.90;;;;;;;1.17;77.64;94023.59;5118364;27;20199;-70
2023/01/27 06:31:06;;;;;;;5.90;5.35;;;;;;;1.21;77.99;94026.47;5136608;27;20183;-69
2023/01/27 06:33:33;;;;;;;5.80;5.40;;;;;;;1.20;77.87;94028.38;5136643;27;20248;-68
2023/01/27 06:36:02;;;;;;;6.38;5.88;;;;;;;1.23;77.21;94029.63;5136270;27;20183;-68
2023/01/27 06:38:29;;;;;;;7.57;6.70;;;;;;;1.26;77.40;94022.78;5118727;27;20218;-68
2023/01/27 06:40:56;;;;;;;5.57;5.18;;;;;;;1.26;76.87;94017.34;5118769;27;20194;-68
2023/01/27 06:43:23;;;;;;;6.20;5.70;;;;;;;1.27;76.76;94022.47;5118878;28;20232;-70
2023/01/27 06:45:50;;;;;;;6.15;5.70;;;;;;;1.30;77.35;94029.16;5136673;28;20186;-69
2023/01/27 06:48:17;;;;;;;7.53;6.93;;;;;;;1.31;77.09;94028.06;5136696;27;20183;-70
2023/01/27 06:50:43;;;;;;;7.85;7.20;;;;;;;1.35;77.30;94027.09;5137424;28;20194;-74
2023/01/27 06:53:12;;;;;;;8.10;7.30;;;;;;;1.36;77.31;94027.91;5119869;28;20202;-70
2023/01/27 06:55:40;;;;;;;9.73;8.50;;;;;;;1.37;77.50;94038.44;5137405;28;20198;-69
2023/01/27 06:58:07;;;;;;;12.30;11.00;;;;;;;1.39;77.04;94035.41;5136787;27;20203;-70
2023/01/27 07:00:35;;;;;;;12.10;11.00;;;;;;;1.41;77.12;94036.66;5119028;28;20199;-69
2023/01/27 07:03:01;;;;;;;11.43;10.43;;;;;;;1.44;76.74;94029.81;5118713;28;20245;-69
2023/01/27 07:05:28;;;;;;;10.80;9.90;;;;;;;1.50;76.60;94030.44;5119152;28;20183;-71
2023/01/27 07:07:55;;;;;;;9.02;8.13;;;;;;;1.52;76.60;94039.06;5120895;28;20190;-74
2023/01/27 07:10:23;;;;;;;7.72;7.10;;;;;;;1.57;75.95;94047.06;5137852;28;20263;-69
2023/01/27 07:12:50;;;;;;;7.05;6.45;;;;;;;1.57;75.05;94044.34;5118824;28;20187;-70
2023/01/27 07:15:17;;;;;;;6.15;5.65;;;;;;;1.60;75.12;94044.50;5136304;28;20187;-68
2023/01/27 07:17:44;;;;;;;5.72;5.22;;;;;;;1.59;74.44;94045.63;5118532;28;20211;-68
2023/01/27 07:20:13;;;;;;;6.63;5.82;;;;;;;1.58;75.01;94038.59;5119096;28;20175;-70
2023/01/27 07:22:40;;;;;;;6.57;5.53;;;;;;;1.57;74.26;94038.91;5136321;28;20202;-67
2023/01/27 07:25:07;;;;;;;8.25;7.30;;;;;;;1.53;74.59;94040.69;5136637;28;20216;-69
2023/01/27 07:27:35;;;;;;;6.28;5.68;;;;;;;1.53;74.28;94036.03;5136292;28;20258;-69
2023/01/27 07:30:02;;;;;;;7.35;6.70;;;;;;;1.56;74.03;94037.31;5118527;28;20280;-69
2023/01/27 07:32:29;;;;;;;11.18;10.07;;;;;;;1.60;74.68;94038.28;5118194;28;20215;-69
2023/01/27 07:34:56;;;;;;;11.02;8.70;;;;;;;1.60;74.65;94036.34;5137116;28;20190;-73
2023/01/27 07:37:22;;;;;;;12.05;9.25;;;;;;;1.61;74.93;94034.44;5118343;28;20214;-69
2023/01/27 07:39:49;;;;;;;8.40;7.60;;;;;;;1.62;74.55;94044.19;5118838;28;20211;-69
2023/01/27 07:42:16;;;;;;;8.40;7.60;;;;;;;1.68;74.54;94037.47;5137362;28;20179;-69
2023/01/27 07:44:44;;;;;;;10.00;9.10;;;;;;;1.71;74.69;94046.88;5136610;28;20195;-68
2023/01/27 07:47:11;;;;;;;11.63;10.45;;;;;;;1.71;75.30;94042.25;5136067;28;20187;-67
2023/01/27 07:49:37;;;;;;;8.48;7.57;;;;;;;1.73;74.46;94041.94;5118448;27;20198;-69
2023/01/27 07:52:04;;;;;;;7.30;6.60;;;;;;;1.72;74.91;94043.84;5122066;27;20245;-69
2023/01/27 07:54:31;;;;;;;8.80;7.60;;;;;;;1.73;74.76;94040.00;5121762;27;20260;-67
2023/01/27 07:56:59;;;;;;;5.35;4.82;;;;;;;1.76;74.54;94050.25;5140326;27;20520;-69
2023/01/27 07:59:26;;;;;;;5.20;4.80;;;;;;;1.74;73.74;94049.75;5139902;27;20246;-69
2023/01/27 08:01:54;;;;;;;5.78;5.38;;;;;;;1.75;73.76;94050.56;5122857;27;20203;-69
2023/01/27 08:04:21;;;;;;;5.70;5.20;;;;;;;1.73;73.34;94047.38;5122786;27;20198;-70
2023/01/27 08:06:48;;;;;;;4.75;4.35;;;;;;;1.72;73.91;94043.84;5140048;27;20195;-69
2023/01/27 08:09:15;;;;;;;4.85;4.45;;;;;;;1.77;73.42;94040.16;5139744;27;20431;-70
2023/01/27 08:11:41;;;;;;;6.03;5.53;;;;;;;1.78;73.87;94028.97;5139034;27;20427;-72
2023/01/27 08:14:08;;;;;;;8.43;7.63;;;;;;;1.85;74.39;94031.19;5139658;27;20438;-74
2023/01/27 08:16:35;;;;;;;7.13;6.43;;;;;;;1.92;74.01;94035.03;5122147;27;20198;-69
2023/01/27 08:19:03;;;;;;;6.80;6.20;;;;;;;1.97;73.40;94031.34;5123124;27;20551;-70
2023/01/27 08:21:31;;;;;;;7.22;6.53;;;;;;;2.00;73.43;94027.97;5122418;27;20194;-69
2023/01/27 08:23:58;;;;;;;6.75;6.10;;;;;;;2.02;73.33;94033.88;5123530;27;20199;-70
2023/01/27 08:26:25;;;;;;;7.90;6.00;;;;;;;2.02;72.60;94033.88;5123468;27;20191;-70
2023/01/27 08:28:52;;;;;;;7.15;5.30;;;;;;;1.95;71.85;94052.59;5140347;27;20183;-71
2023/01/27 08:31:19;;;;;;;6.30;5.70;;;;;;;1.90;71.96;94056.28;5141731;27;20260;-71
2023/01/27 08:33:50;;;;;;;4.75;4.35;;;;;;;1.90;71.78;94052.78;5122692;27;20195;-70
2023/01/27 08:36:19;;;;;;;3.83;3.50;;;;;;;1.86;72.06;94044.47;5122395;27;20252;-70
2023/01/27 08:38:48;;;;;;;4.28;3.97;;;;;;;1.87;71.96;94058.88;5141137;27;20203;-70
2023/01/27 08:41:16;;;;;;;5.10;4.70;;;;;;;1.87;73.13;94056.94;5122685;27;20194;-70
2023/01/27 08:43:44;;;;;;;5.32;4.93;;;;;;;1.81;72.42;94060.94;5141682;27;20190;-70
2023/01/27 08:46:11;;;;;;;4.90;4.50;;;;;;;1.79;72.46;94059.69;5123808;27;20195;-70
2023/01/27 08:48:38;;;;;;;6.18;5.57;;;;;;;1.80;72.05;94059.34;5123690;27;20198;-70
2023/01/27 08:51:06;;;;;;;7.05;6.35;;;;;;;1.82;72.12;94057.13;5123667;27;20191;-70
2023/01/27 08:53:36;;;;;;;8.57;6.57;;;;;;;1.83;72.23;94053.28;5142519;27;20183;-72
2023/01/27 08:56:05;;;;;;;5.55;4.88;;;;;;;1.89;71.96;94053.91;5122581;27;20199;-70
2023/01/27 08:58:33;;;;;;;6.13;5.28;;;;;;;1.84;72.01;94057.59;5119287;27;20231;-72
2023/01/27 09:01:01;;;;;;;7.90;6.90;;;;;;;1.83;71.92;94058.72;5100018;28;20265;-73
2023/01/27 09:03:28;;;;;;;9.27;8.25;;;;;;;1.83;71.95;94063.34;5100202;28;20223;-69
2023/01/27 09:05:55;;;;;;;7.70;6.85;;;;;;;1.84;71.98;94056.78;5101322;28;20241;-72
2023/01/27 09:08:22;;;;;;;5.70;5.20;;;;;;;1.85;72.33;94058.38;5102730;28;20192;-71
2023/01/27 09:10:51;;;;;;;5.60;5.10;;;;;;;1.85;72.44;94052.94;5103346;28;20215;-72
2023/01/27 09:13:20;;;;;;;5.15;4.65;;;;;;;1.87;72.21;94053.44;5102656;28;20223;-72
2023/01/27 09:15:47;;;;;;;5.35;4.85;;;;;;;1.91;72.84;94048.94;5103833;28;20294;-73
2023/01/27 09:18:14;;;;;;;5.00;4.60;;;;;;;1.96;71.90;94042.53;5103373;28;20227;-73
2023/01/27 09:20:41;;;;;;;3.97;3.67;;;;;;;1.98;72.06;94048.44;5122216;28;20198;-73
2023/01/27 09:23:08;;;;;;;3.63;3.33;;;;;;;1.93;71.54;94058.38;5104097;28;20202;-73
2023/01/27 09:25:35;;;;;;;3.47;3.25;;;;;;;1.86;71.11;94057.28;5121446;28;20200;-73
2023/01/27 09:28:03;;;;;;;3.53;3.33;;;;;;;1.87;72.60;94046.06;5104752;28;20616;-73
2023/01/27 09:30:30;;;;;;;4.63;4.30;;;;;;;1.91;72.73;94046.22;5121739;28;20184;-74
2023/01/27 09:33:00;;;;;;;5.20;4.80;;;;;;;1.95;73.05;94030.06;5100872;28;20197;-69
2023/01/27 09:35:28;;;;;;;21.88;19.95;;;;;;;2.01;72.81;94031.50;5100017;28;20206;-70
2023/01/27 09:37:57;;;;;;;5.70;5.28;;;;;;;2.04;71.95;94031.63;5098497;28;20482;-69
2023/01/27 09:40:30;;;;;;;4.55;4.25;;;;;;;2.05;71.66;94024.28;5098924;28;20263;-70
2023/01/27 09:43:28;;;;;;;4.07;3.78;;;;;;;1.97;70.93;94028.63;5116721;28;20490;-72
2023/01/27 09:46:18;;;;;;;4.05;3.75;;;;;;;1.93;71.52;94028.47;5117780;28;20188;-70
2023/01/27 09:49:07;;;;;;;3.95;3.65;;;;;;;1.97;72.04;94020.47;5117769;28;20270;-74
2023/01/27 09:51:41;;;;;;;3.85;3.55;;;;;;;1.98;71.36;94013.88;5100392;28;20210;-74
2023/01/27 09:54:24;;;;;;;4.28;3.92;;;;;;;1.93;71.73;94012.16;5099680;28;20654;-75
2023/01/27 09:56:57;;;;;;;4.18;3.78;;;;;;;1.93;72.27;94001.28;5100328;28;20195;-75
2023/01/27 09:59:44;;;;;;;3.95;3.65;;;;;;;1.98;72.88;94005.72;5126156;27;20430;-71
2023/01/27 10:02:21;;;;;;;3.65;3.42;;;;;;;1.96;72.40;94004.44;5119308;27;20202;-74
2023/01/27 10:05:09;;;;;;;3.83;3.53;;;;;;;1.99;72.25;93999.16;5136452;27;20422;-69
2023/01/27 10:07:59;;;;;;;4.20;3.85;;;;;;;2.00;72.00;93994.50;5137959;27;20191;-68
2023/01/27 10:10:36;;;;;;;4.57;4.28;;;;;;;1.97;72.81;93987.81;5119920;27;20199;-68
2023/01/27 10:13:16;;;;;;;4.63;4.32;;;;;;;1.98;72.12;93996.78;5120179;27;20250;-68
2023/01/27 10:15:57;;;;;;;5.22;4.72;;;;;;;1.95;72.42;93991.97;5138472;27;20190;-68
2023/01/27 10:18:34;;;;;;;4.45;4.05;;;;;;;1.97;72.53;93987.81;5120767;27;20215;-68
2023/01/27 10:21:06;;;;;;;4.95;4.60;;;;;;;1.96;72.89;93983.50;5138337;27;20180;-69
2023/01/27 10:23:39;;;;;;;5.78;5.28;;;;;;;2.00;73.07;93989.06;5119826;27;20191;-68
2023/01/27 10:26:15;;;;;;;7.82;7.05;;;;;;;2.01;73.14;93983.31;5137761;27;20194;-68
2023/01/27 10:28:46;;;;;;;6.55;5.95;;;;;;;2.02;73.11;93986.84;5137796;27;20517;-68
2023/01/27 10:31:20;;;;;;;6.57;5.97;;;;;;;2.03;73.53;93980.25;5119604;27;20195;-68
2023/01/27 10:33:51;;;;;;;5.40;4.90;;;;;;;2.07;73.24;93989.38;5137406;27;20194;-68
2023/01/27 10:36:25;;;;;;;4.63;4.22;;;;;;;2.10;72.95;93983.28;5137865;27;20179;-68
2023/01/27 10:39:03;;;;;;;4.78;4.38;;;;;;;2.08;72.25;93980.91;5119545;27;20214;-68
2023/01/27 10:41:36;;;;;;;5.10;4.70;;;;;;;2.09;72.72;93984.41;5137202;27;20204;-68
2023/01/27 10:44:18;;;;;;;3.75;3.45;;;;;;;2.05;72.37;93989.72;5137664;27;20187;-68
2023/01/27 10:46:53;;;;;;;4.07;3.78;;;;;;;2.11;72.33;93987.63;5119746;27;20627;-70
2023/01/27 10:49:23;;;;;;;3.90;3.60;;;;;;;2.18;72.70;93987.91;5118012;28;20201;-70
2023/01/27 10:51:53;;;;;;;4.30;3.97;;;;;;;2.15;72.74;93975.75;5136214;28;20195;-71
2023/01/27 10:54:24;;;;;;;9.85;8.98;;;;;;;2.11;72.53;93980.25;5118207;28;20248;-71
2023/01/27 10:56:54;;;;;;;6.30;5.80;;;;;;;2.11;72.14;93987.63;5117929;28;20203;-71
2023/01/27 10:59:27;;;;;;;4.13;3.92;;;;;;;2.16;72.47;93996.38;5136551;28;20241;-71
2023/01/27 11:02:00;;;;;;;4.38;4.07;;;;;;;2.18;72.39;93985.19;5120627;28;20225;-72
2023/01/27 11:04:33;;;;;;;4.25;3.95;;;;;;;2.17;72.14;93980.84;5139013;28;20622;-70
2023/01/27 11:07:00;;;;;;;4.32;3.92;;;;;;;2.15;72.12;93983.91;5119684;28;20209;-71
2023/01/27 11:09:30;;;;;;;4.22;3.92;;;;;;;2.11;72.45;93979.47;5119717;28;20206;-71
2023/01/27 11:12:02;;;;;;;4.18;3.88;;;;;;;2.14;72.72;93987.75;5119737;28;20208;-70
2023/01/27 11:14:31;;;;;;;3.70;3.50;;;;;;;2.17;72.20;93989.00;5137002;28;20183;-71
2023/01/27 11:17:04;;;;;;;4.15;3.95;;;;;;;2.19;71.94;93980.53;5118084;28;20210;-72
2023/01/27 11:19:42;;;;;;;4.03;3.80;;;;;;;2.19;72.00;93977.81;5135689;28;20211;-72
2023/01/27 11:22:21;;;;;;;22.92;18.20;;;;;;;2.15;70.80;93964.88;5118093;28;20199;-72
2023/01/27 11:24:53;;;;;;;13.10;11.23;;;;;;;2.20;71.02;93973.97;5137451;27;20244;-71
2023/01/27 11:27:27;;;;;;;4.50;4.20;;;;;;;2.20;70.32;93963.09;5140531;27;20191;-70
2023/01/27 11:29:56;;;;;;;4.50;4.20;;;;;;;2.16;70.50;93965.66;5124507;27;20187;-70
2023/01/27 11:32:31;;;;;;;4.00;3.80;;;;;;;2.13;70.26;93963.59;5125155;27;20194;-71
2023/01/27 11:35:03;;;;;;;4.10;3.80;;;;;;;2.08;70.67;93966.50;5122763;27;20190;-71
2023/01/27 11:37:31;;;;;;;4.47;4.18;;;;;;;2.07;70.59;93962.16;5140992;27;20249;-72
2023/01/27 11:39:58;;;;;;;4.38;4.07;;;;;;;2.01;70.74;93960.78;5140025;27;20273;-69
2023/01/27 11:42:30;;;;;;;5.25;4.85;;;;;;;2.06;70.64;93958.66;5142216;27;20184;-70
2023/01/27 11:44:58;;;;;;;4.90;4.50;;;;;;;2.09;70.15;93965.38;5124073;27;20190;-71
2023/01/27 11:47:29;;;;;;;6.10;5.53;;;;;;;2.09;70.89;93963.44;5124328;27;20203;-70
2023/01/27 11:49:56;;;;;;;5.90;5.40;;;;;;;2.13;70.56;93956.22;5141765;27;20200;-69
2023/01/27 11:52:25;;;;;;;4.82;4.53;;;;;;;2.13;70.75;93953.50;5142446;27;20188;-70
2023/01/27 11:54:57;;;;;;;5.15;4.70;;;;;;;2.14;71.01;93946.97;5142334;27;20175;-70
2023/01/27 11:57:26;;;;;;;5.18;4.78;;;;;;;2.12;70.83;93949.19;5123594;27;20198;-68
2023/01/27 11:59:57;;;;;;;5.35;4.88;;;;;;;2.12;71.41;93949.19;5122179;27;20227;-68
2023/01/27 12:02:36;;;;;;;5.03;4.63;;;;;;;2.14;71.13;93954.31;5122571;27;20203;-70
2023/01/27 12:05:08;;;;;;;5.00;4.60;;;;;;;2.15;71.37;93943.09;5122582;27;20256;-69
2023/01/27 12:07:43;;;;;;;4.47;4.18;;;;;;;2.19;70.84;93945.97;5123120;27;20245;-69
2023/01/27 12:10:26;;;;;;;3.83;3.53;;;;;;;2.21;70.67;93948.34;5122285;27;20201;-70
2023/01/27 12:13:17;;;;;;;4.18;3.88;;;;;;;2.21;70.63;93957.31;5140711;27;20197;-69
2023/01/27 12:16:05;;;;;;;4.57;4.28;;;;;;;2.16;70.28;93957.50;5140236;27;20191;-71
2023/01/27 12:19:03;;;;;;;4.40;4.10;;;;;;;2.10;70.07;93956.88;5139639;27;20283;-68
2023/01/27 12:21:51;;;;;;;4.65;4.35;;;;;;;2.12;70.45;93949.19;5139390;27;20186;-69
2023/01/27 12:24:38;;;;;;;4.72;4.43;;;;;;;2.20;71.28;93955.72;5139264;27;20178;-69